createdAt,value
2022-10-31T00:01:25.417Z,10.98
2022-10-31T00:03:56.601Z,12.07
2022-10-31T00:06:27.788Z,12.30
2022-10-31T00:09:01.709Z,12.18
2022-10-31T00:11:32.920Z,12.38
2022-10-31T00:14:04.311Z,11.80
2022-10-31T00:16:35.217Z,12.98
2022-10-31T00:19:08.920Z,12.68
2022-10-31T00:21:39.793Z,10.68
2022-10-31T00:24:11.099Z,12.85
2022-10-31T00:27:01.687Z,11.65
2022-10-31T00:29:32.948Z,11.98
2022-10-31T00:32:04.417Z,11.60
2022-10-31T00:34:35.506Z,12.73
2022-10-31T00:37:06.699Z,12.55
2022-10-31T00:39:59.251Z,12.50
2022-10-31T00:42:30.633Z,12.60
2022-10-31T00:45:02.577Z,12.07
2022-10-31T00:50:17.644Z,12.75
2022-10-31T00:52:50.000Z,11.48
2022-10-31T00:55:20.996Z,12.80
2022-10-31T00:57:52.087Z,12.52
2022-10-31T01:00:23.236Z,12.98
2022-10-31T01:02:54.337Z,11.85
2022-10-31T01:05:25.865Z,11.15
2022-10-31T01:07:58.030Z,12.23
2022-10-31T01:10:31.180Z,12.20
2022-10-31T01:18:43.875Z,12.00
2022-10-31T01:21:21.936Z,11.65
2022-10-31T01:23:55.637Z,12.07
2022-10-31T01:26:32.936Z,12.15
2022-10-31T01:29:08.876Z,11.93
2022-10-31T01:31:42.474Z,12.00
2022-10-31T01:34:22.135Z,12.05
2022-10-31T01:36:53.506Z,12.32
2022-10-31T01:39:27.504Z,11.50
2022-10-31T01:42:03.402Z,12.20
2022-10-31T01:45:00.115Z,12.48
2022-10-31T01:47:51.821Z,11.63
2022-10-31T01:50:39.949Z,12.38
2022-10-31T01:53:12.507Z,11.40
2022-10-31T01:55:46.285Z,11.82
2022-10-31T01:58:25.922Z,11.48
2022-10-31T02:01:04.877Z,11.20
2022-10-31T02:03:39.666Z,11.77
2022-10-31T02:06:19.985Z,11.18
2022-10-31T02:08:50.956Z,11.88
2022-10-31T02:11:21.994Z,10.45
2022-10-31T02:13:52.949Z,11.00
2022-10-31T02:16:26.224Z,12.18
2022-10-31T02:19:27.420Z,10.98
2022-10-31T02:22:29.502Z,11.85
2022-10-31T02:25:28.803Z,11.23
2022-10-31T02:28:28.963Z,11.30
2022-10-31T02:31:13.259Z,11.73
2022-10-31T02:34:15.806Z,10.85
2022-10-31T02:36:59.550Z,11.18
2022-10-31T02:39:48.267Z,10.77
2022-10-31T02:42:43.252Z,11.73
2022-10-31T02:45:47.197Z,10.60
2022-10-31T02:48:31.742Z,11.17
2022-10-31T02:51:05.904Z,11.65
2022-10-31T02:53:38.544Z,11.18
2022-10-31T02:56:20.751Z,10.35
2022-10-31T02:59:03.083Z,10.82
2022-10-31T03:01:43.084Z,11.32
2022-10-31T03:04:42.043Z,11.38
2022-10-31T03:07:46.785Z,11.20
2022-10-31T03:10:23.822Z,10.77
2022-10-31T03:13:09.797Z,11.60
2022-10-31T03:15:47.805Z,11.07
2022-10-31T03:21:43.994Z,10.20
2022-10-31T03:24:18.167Z,10.30
2022-10-31T03:26:57.885Z,10.65
2022-10-31T03:29:38.090Z,11.32
2022-10-31T03:32:14.855Z,10.85
2022-10-31T03:34:50.149Z,10.73
2022-10-31T03:37:23.600Z,10.93
2022-10-31T03:39:56.570Z,10.57
2022-10-31T03:42:32.160Z,10.68
2022-10-31T03:45:10.819Z,10.15
2022-10-31T03:47:46.075Z,11.65
2022-10-31T03:50:18.391Z,11.02
2022-10-31T03:53:01.448Z,10.90
2022-10-31T03:55:43.292Z,10.73
2022-10-31T03:58:39.631Z,9.90
2022-10-31T04:01:18.196Z,10.80
2022-10-31T04:03:50.918Z,10.23
2022-10-31T04:07:01.500Z,10.05
2022-10-31T04:09:53.381Z,9.95
2022-10-31T04:12:27.713Z,9.40
2022-10-31T04:15:33.615Z,9.90
2022-10-31T04:18:06.677Z,10.73
2022-10-31T04:20:39.843Z,10.27
2022-10-31T04:23:25.071Z,9.52
2022-10-31T04:25:57.130Z,10.13
2022-10-31T04:28:27.966Z,9.98
2022-10-31T04:30:58.938Z,9.90
2022-10-31T04:33:29.777Z,10.38
2022-10-31T04:36:22.974Z,9.85
2022-10-31T04:38:54.005Z,9.88
2022-10-31T04:41:42.466Z,9.77
2022-10-31T04:44:19.684Z,9.88
2022-10-31T04:46:54.799Z,10.02
2022-10-31T04:49:26.760Z,9.40
2022-10-31T04:51:57.883Z,9.80
2022-10-31T04:54:28.786Z,9.25
2022-10-31T04:57:17.710Z,9.63
2022-10-31T04:59:50.823Z,9.90
2022-10-31T05:02:21.734Z,10.18
2022-10-31T05:04:59.083Z,9.85
2022-10-31T05:07:30.165Z,10.07
2022-10-31T05:10:01.207Z,9.52
2022-10-31T05:12:34.059Z,10.13
2022-10-31T05:15:11.271Z,9.73
2022-10-31T05:18:34.033Z,10.13
2022-10-31T05:21:23.274Z,10.05
2022-10-31T05:23:57.969Z,9.57
2022-10-31T05:26:28.862Z,9.80
2022-10-31T05:28:59.931Z,10.07
2022-10-31T05:37:41.895Z,9.52
2022-10-31T05:40:15.430Z,9.52
2022-10-31T05:42:47.504Z,10.15
2022-10-31T05:45:20.966Z,9.30
2022-10-31T05:48:02.093Z,9.30
2022-10-31T05:50:54.590Z,8.80
2022-10-31T05:53:26.618Z,9.50
2022-10-31T05:55:57.523Z,9.18
2022-10-31T05:58:29.229Z,9.23
2022-10-31T06:01:09.269Z,10.18
2022-10-31T06:03:41.741Z,9.73
2022-10-31T06:06:14.286Z,8.85
2022-10-31T06:08:45.574Z,9.13
2022-10-31T06:14:30.301Z,8.95
2022-10-31T06:17:01.964Z,8.65
2022-10-31T06:19:55.651Z,9.05
2022-10-31T06:22:30.804Z,9.00
2022-10-31T06:25:03.090Z,8.82
2022-10-31T06:27:38.462Z,8.60
2022-10-31T06:30:15.864Z,9.13
2022-10-31T06:35:20.488Z,8.88
2022-10-31T06:37:55.951Z,8.25
2022-10-31T06:40:42.816Z,9.98
2022-10-31T06:43:24.623Z,8.43
2022-10-31T06:46:09.239Z,8.98
2022-10-31T06:48:49.549Z,8.77
2022-10-31T06:51:23.658Z,8.75
2022-10-31T06:53:55.276Z,8.65
2022-10-31T06:56:29.867Z,9.02
2022-10-31T06:59:02.754Z,8.60
2022-10-31T07:02:20.366Z,8.70
2022-10-31T07:04:52.980Z,8.15
2022-10-31T07:07:24.199Z,7.88
2022-10-31T07:09:55.483Z,8.70
2022-10-31T07:12:44.427Z,8.23
2022-10-31T07:15:15.682Z,8.25
2022-10-31T07:17:47.179Z,8.02
2022-10-31T07:20:18.419Z,8.50
2022-10-31T07:22:50.766Z,8.32
2022-10-31T07:25:23.696Z,7.97
2022-10-31T07:28:23.090Z,8.00
2022-10-31T07:30:58.824Z,7.93
2022-10-31T07:33:29.971Z,8.40
2022-10-31T07:36:23.664Z,7.55
2022-10-31T07:38:56.309Z,7.43
2022-10-31T07:41:27.933Z,6.80
2022-10-31T07:43:59.203Z,7.55
2022-10-31T07:46:47.940Z,7.53
2022-10-31T07:49:36.425Z,7.28
2022-10-31T07:52:42.480Z,7.43
2022-10-31T07:56:19.609Z,7.50
2022-10-31T07:58:50.787Z,6.97
2022-10-31T08:01:42.345Z,7.18
2022-10-31T08:04:52.601Z,7.57
2022-10-31T08:10:22.660Z,7.07
2022-10-31T08:13:00.975Z,7.15
2022-10-31T08:15:33.371Z,7.88
2022-10-31T08:18:04.452Z,7.43
2022-10-31T08:20:37.007Z,7.85
2022-10-31T08:23:09.070Z,7.05
2022-10-31T08:25:40.768Z,7.75
2022-10-31T08:28:14.177Z,6.85
2022-10-31T08:30:48.957Z,7.10
2022-10-31T08:33:37.940Z,6.47
2022-10-31T08:36:25.042Z,7.15
2022-10-31T08:39:22.677Z,8.30
2022-10-31T08:41:54.837Z,6.80
2022-10-31T08:44:26.645Z,6.93
2022-10-31T08:46:57.840Z,6.78
2022-10-31T08:49:28.814Z,7.70
2022-10-31T08:52:00.238Z,6.95
2022-10-31T08:54:35.872Z,6.90
2022-10-31T08:57:44.439Z,7.00
2022-10-31T09:00:16.870Z,6.97
2022-10-31T09:03:04.426Z,6.35
2022-10-31T09:05:37.046Z,6.97
2022-10-31T09:08:15.685Z,6.63
2022-10-31T09:10:49.305Z,6.72
2022-10-31T09:13:28.239Z,7.15
2022-10-31T09:16:22.338Z,7.15
2022-10-31T09:19:13.107Z,6.45
2022-10-31T09:21:49.109Z,6.47
2022-10-31T09:24:21.370Z,6.78
2022-10-31T09:26:52.270Z,6.40
2022-10-31T09:29:31.936Z,6.65
2022-10-31T09:32:04.909Z,6.55
2022-10-31T09:34:41.504Z,6.88
2022-10-31T09:37:18.642Z,6.45
2022-10-31T09:39:49.751Z,7.07
2022-10-31T09:43:01.469Z,7.32
2022-10-31T09:45:41.915Z,6.72
2022-10-31T09:48:41.829Z,6.07
2022-10-31T09:51:46.906Z,5.93
2022-10-31T09:54:49.260Z,7.25
2022-10-31T09:57:32.838Z,6.40
2022-10-31T10:00:07.261Z,6.60
2022-10-31T10:02:56.718Z,6.13
2022-10-31T10:05:43.393Z,5.82
2022-10-31T10:08:25.893Z,6.47
2022-10-31T10:11:45.417Z,6.88
2022-10-31T10:14:29.476Z,6.50
2022-10-31T10:17:12.014Z,6.60
2022-10-31T10:20:11.924Z,6.40
2022-10-31T10:23:03.151Z,6.47
2022-10-31T10:25:44.955Z,6.22
2022-10-31T10:28:40.485Z,7.13
2022-10-31T10:31:22.468Z,7.20
2022-10-31T10:34:11.409Z,7.13
2022-10-31T10:36:58.986Z,7.60
2022-10-31T10:39:52.588Z,6.75
2022-10-31T10:42:43.023Z,6.23
2022-10-31T10:45:38.155Z,6.10
2022-10-31T10:48:26.683Z,7.40
2022-10-31T10:50:57.472Z,6.32
2022-10-31T10:54:16.174Z,6.00
2022-10-31T10:57:07.003Z,9.82
2022-10-31T10:59:38.216Z,8.52
2022-10-31T11:05:24.760Z,9.75
2022-10-31T11:07:55.847Z,8.68
2022-10-31T11:10:26.791Z,8.90
2022-10-31T11:13:25.908Z,8.60
2022-10-31T11:16:02.844Z,8.57
2022-10-31T11:18:37.388Z,9.02
2022-10-31T11:21:09.248Z,9.70
2022-10-31T11:23:40.444Z,8.45
2022-10-31T11:26:23.650Z,8.90
2022-10-31T11:29:02.138Z,8.03
2022-10-31T11:31:35.338Z,8.93
2022-10-31T11:34:17.299Z,8.57
2022-10-31T11:36:48.765Z,9.13
2022-10-31T11:39:29.776Z,8.93
2022-10-31T11:42:08.914Z,8.43
2022-10-31T11:44:46.189Z,8.25
2022-10-31T11:47:23.629Z,8.15
2022-10-31T11:49:54.904Z,8.50
2022-10-31T11:52:35.507Z,8.35
2022-10-31T11:55:21.034Z,8.55
2022-10-31T11:57:54.374Z,8.18
2022-10-31T12:00:40.979Z,8.40
2022-10-31T12:03:27.105Z,7.90
2022-10-31T12:06:04.439Z,7.97
2022-10-31T12:08:38.513Z,8.38
2022-10-31T12:11:30.575Z,8.25
2022-10-31T12:14:32.485Z,8.32
2022-10-31T12:17:07.662Z,8.05
2022-10-31T12:20:23.931Z,7.93
2022-10-31T12:22:55.074Z,8.63
2022-10-31T12:25:34.976Z,8.80
2022-10-31T12:28:52.545Z,8.40
2022-10-31T12:31:41.088Z,7.93
2022-10-31T12:34:52.566Z,8.43
2022-10-31T12:37:41.531Z,7.70
2022-10-31T12:43:48.349Z,8.07
2022-10-31T12:46:47.880Z,8.75
2022-10-31T12:49:38.608Z,8.43
2022-10-31T12:52:12.585Z,9.18
2022-10-31T12:55:06.077Z,8.05
2022-10-31T12:57:42.992Z,7.68
2022-10-31T13:00:25.316Z,7.78
2022-10-31T13:03:21.772Z,7.93
2022-10-31T13:05:59.523Z,8.43
2022-10-31T13:08:46.380Z,7.78
2022-10-31T13:11:44.658Z,7.65
2022-10-31T13:14:29.295Z,8.40
2022-10-31T13:17:02.425Z,8.18
2022-10-31T13:19:46.597Z,8.13
2022-10-31T13:22:27.309Z,8.10
2022-10-31T13:25:05.202Z,8.90
2022-10-31T13:28:08.433Z,8.85
2022-10-31T13:30:44.815Z,8.18
2022-10-31T13:33:19.040Z,8.48
2022-10-31T13:36:13.995Z,8.25
2022-10-31T13:38:54.434Z,8.15
2022-10-31T13:41:37.157Z,8.40
2022-10-31T13:44:27.155Z,8.00
2022-10-31T13:47:00.249Z,8.80
2022-10-31T13:49:34.171Z,8.68
2022-10-31T13:52:14.097Z,7.38
2022-10-31T13:54:58.690Z,8.93
2022-10-31T13:57:58.520Z,8.00
2022-10-31T14:00:30.688Z,8.30
2022-10-31T14:03:49.388Z,8.23
2022-10-31T14:06:15.387Z,8.90
2022-10-31T14:08:54.042Z,7.90
2022-10-31T14:11:34.472Z,8.07
2022-10-31T14:14:14.806Z,8.88
2022-10-31T14:16:52.072Z,8.52
2022-10-31T14:19:26.479Z,8.27
2022-10-31T14:21:57.975Z,8.30
2022-10-31T14:24:29.180Z,7.60
2022-10-31T14:27:26.757Z,7.93
2022-10-31T14:30:11.199Z,7.05
2022-10-31T14:32:42.401Z,8.00
2022-10-31T14:35:21.413Z,7.47
2022-10-31T14:38:01.664Z,7.95
2022-10-31T14:41:12.232Z,8.02
2022-10-31T14:43:46.894Z,7.95
2022-10-31T14:46:36.001Z,7.57
2022-10-31T14:49:33.206Z,7.78
2022-10-31T14:52:08.639Z,8.18
2022-10-31T14:54:46.955Z,7.55
2022-10-31T14:57:35.512Z,7.55
2022-10-31T15:00:11.809Z,7.68
2022-10-31T15:03:00.340Z,7.82
2022-10-31T15:05:34.182Z,7.72
2022-10-31T15:08:05.356Z,8.25
2022-10-31T15:10:40.869Z,7.53
2022-10-31T15:13:30.148Z,7.70
2022-10-31T15:16:22.475Z,7.28
2022-10-31T15:19:07.203Z,7.63
2022-10-31T15:21:43.511Z,7.30
2022-10-31T15:24:20.892Z,7.50
2022-10-31T15:27:02.341Z,7.35
2022-10-31T15:29:35.981Z,7.43
2022-10-31T15:32:30.434Z,6.97
2022-10-31T15:37:32.578Z,7.10
2022-10-31T15:40:16.723Z,6.82
2022-10-31T15:45:27.598Z,7.82
2022-10-31T15:48:20.728Z,7.40
2022-10-31T15:50:58.374Z,7.40
2022-10-31T15:53:52.780Z,7.70
2022-10-31T15:56:35.031Z,8.35
2022-10-31T15:59:20.554Z,8.25
2022-10-31T16:02:13.771Z,7.78
2022-10-31T16:05:00.817Z,7.35
2022-10-31T16:07:33.217Z,7.43
2022-10-31T16:12:50.341Z,7.50
2022-10-31T16:15:23.854Z,7.35
2022-10-31T16:18:15.256Z,7.72
2022-10-31T16:20:54.943Z,8.00
2022-10-31T16:23:28.694Z,7.30
2022-10-31T16:28:33.093Z,7.05
2022-10-31T16:31:16.908Z,7.10
2022-10-31T16:33:50.616Z,7.18
2022-10-31T16:39:19.867Z,7.25
2022-10-31T16:41:58.532Z,7.57
2022-10-31T16:44:30.663Z,7.20
2022-10-31T16:47:12.655Z,7.47
2022-10-31T16:49:49.780Z,7.32
2022-10-31T16:52:21.501Z,7.10
2022-10-31T16:54:53.018Z,7.68
2022-10-31T16:57:49.742Z,7.40
2022-10-31T17:00:25.846Z,7.15
2022-10-31T17:03:00.539Z,7.47
2022-10-31T17:05:32.095Z,7.60
2022-10-31T17:08:03.494Z,7.57
2022-10-31T17:10:59.607Z,7.30
2022-10-31T17:13:33.517Z,7.13
2022-10-31T17:16:07.277Z,7.50
2022-10-31T17:18:38.540Z,8.20
2022-10-31T17:21:17.470Z,7.40
2022-10-31T17:23:48.792Z,7.07
2022-10-31T17:26:20.748Z,7.93
2022-10-31T17:28:52.096Z,7.63
2022-10-31T17:31:31.272Z,7.82
2022-10-31T17:34:03.716Z,8.38
2022-10-31T17:36:55.427Z,6.97
2022-10-31T17:39:26.675Z,7.28
2022-10-31T17:42:18.736Z,7.70
2022-10-31T17:44:50.028Z,7.28
2022-10-31T17:47:21.209Z,7.45
2022-10-31T17:49:55.329Z,7.20
2022-10-31T17:52:26.327Z,7.38
2022-10-31T18:00:51.325Z,7.60
2022-10-31T18:03:22.646Z,8.65
2022-10-31T18:05:59.137Z,7.68
2022-10-31T18:08:32.448Z,7.00
2022-10-31T18:11:11.006Z,8.02
2022-10-31T18:13:42.441Z,7.30
2022-10-31T18:16:16.840Z,7.60
2022-10-31T18:18:52.269Z,7.43
2022-10-31T18:21:23.697Z,7.25
2022-10-31T18:24:04.365Z,7.28
2022-10-31T18:26:35.450Z,7.70
2022-10-31T18:29:06.544Z,7.78
2022-10-31T18:31:37.937Z,7.22
2022-10-31T18:34:08.965Z,7.93
2022-10-31T18:36:39.924Z,7.93
2022-10-31T18:39:10.814Z,7.65
2022-10-31T18:41:42.683Z,7.93
2022-10-31T18:47:09.664Z,7.85
2022-10-31T18:49:40.789Z,8.00
2022-10-31T18:52:11.962Z,7.88
2022-10-31T18:54:42.907Z,8.05
2022-10-31T18:57:14.737Z,7.22
2022-10-31T18:59:45.601Z,7.65
2022-10-31T19:02:17.217Z,7.80
2022-10-31T19:04:48.197Z,7.55
2022-10-31T19:07:19.032Z,8.50
2022-10-31T19:09:49.919Z,7.65
2022-10-31T19:12:43.169Z,7.45
2022-10-31T19:15:14.280Z,7.45
2022-10-31T19:17:45.425Z,7.65
2022-10-31T19:20:16.654Z,7.05
2022-10-31T19:22:47.537Z,6.97
2022-10-31T19:25:18.640Z,8.10
2022-10-31T19:27:49.488Z,7.55
2022-10-31T19:30:20.921Z,7.70
2022-10-31T19:32:56.553Z,8.07
2022-10-31T19:35:28.918Z,7.70
2022-10-31T19:38:03.702Z,7.25
2022-10-31T19:41:15.536Z,7.45
2022-10-31T19:43:46.947Z,8.30
2022-10-31T19:46:22.945Z,7.45
2022-10-31T19:49:06.816Z,7.85
2022-10-31T19:51:58.023Z,7.47
2022-10-31T19:54:29.154Z,8.73
2022-10-31T19:56:59.993Z,7.43
2022-10-31T19:59:41.419Z,7.57
2022-10-31T20:02:20.982Z,7.30
2022-10-31T20:04:54.848Z,7.72
2022-10-31T20:07:27.854Z,7.95
2022-10-31T20:10:21.227Z,7.60
2022-10-31T20:12:52.047Z,7.03
2022-10-31T20:15:23.965Z,7.80
2022-10-31T20:17:54.883Z,7.57
2022-10-31T20:20:26.042Z,7.75
2022-10-31T20:22:57.217Z,7.80
2022-10-31T20:25:48.183Z,7.30
2022-10-31T20:28:19.622Z,7.50
2022-10-31T20:30:50.641Z,7.88
2022-10-31T20:33:21.832Z,7.78
2022-10-31T20:35:52.715Z,7.45
2022-10-31T20:38:23.768Z,8.02
2022-10-31T20:40:54.629Z,8.07
2022-10-31T20:43:29.029Z,8.15
2022-10-31T20:46:11.849Z,7.68
2022-10-31T20:48:42.872Z,7.55
2022-10-31T20:51:18.153Z,7.22
2022-10-31T20:53:51.113Z,8.30
2022-10-31T20:56:24.489Z,8.10
2022-10-31T20:58:57.582Z,7.88
2022-10-31T21:01:31.762Z,7.95
2022-10-31T21:04:02.721Z,8.85
2022-10-31T21:06:34.085Z,7.95
2022-10-31T21:09:05.434Z,7.32
2022-10-31T21:11:36.571Z,7.97
2022-10-31T21:14:07.614Z,8.55
2022-10-31T21:16:38.481Z,8.10
2022-10-31T21:19:10.430Z,7.88
2022-10-31T21:21:41.557Z,7.63
2022-10-31T21:26:55.990Z,7.63
2022-10-31T21:29:27.263Z,7.95
2022-10-31T21:31:58.133Z,6.93
2022-10-31T21:34:29.039Z,8.23
2022-10-31T21:37:00.095Z,7.80
2022-10-31T21:39:31.178Z,7.97
2022-10-31T21:42:02.108Z,8.38
2022-10-31T21:44:32.875Z,8.10
2022-10-31T21:47:03.933Z,7.90
2022-10-31T21:49:34.966Z,8.52
2022-10-31T21:52:05.998Z,7.95
2022-10-31T21:54:38.525Z,8.07
2022-10-31T21:57:09.718Z,8.40
2022-10-31T21:59:42.570Z,9.18
2022-10-31T22:02:13.889Z,10.23
2022-10-31T22:04:45.451Z,9.75
2022-10-31T22:07:16.480Z,10.40
2022-10-31T22:09:50.590Z,10.52
2022-10-31T22:12:21.430Z,11.10
2022-10-31T22:14:52.360Z,11.20
2022-10-31T22:17:23.543Z,11.98
2022-10-31T22:19:55.897Z,11.43
2022-10-31T22:22:26.771Z,11.00
2022-10-31T22:24:57.832Z,12.15
2022-10-31T22:27:28.952Z,12.10
2022-10-31T22:30:00.208Z,11.20
2022-10-31T22:32:31.278Z,11.02
2022-10-31T22:35:02.244Z,11.20
2022-10-31T22:37:33.303Z,11.80
2022-10-31T22:40:04.738Z,10.57
2022-10-31T22:42:35.602Z,11.00
2022-10-31T22:45:06.744Z,10.55
2022-10-31T22:47:37.888Z,11.00
2022-10-31T22:50:49.658Z,11.63
2022-10-31T22:53:20.591Z,10.43
2022-10-31T22:55:54.103Z,9.98
2022-10-31T22:58:24.935Z,10.48
2022-10-31T23:00:56.023Z,10.38
2022-10-31T23:03:27.276Z,10.00
2022-10-31T23:06:01.659Z,10.75
2022-10-31T23:08:34.334Z,11.23
2022-10-31T23:11:15.671Z,10.95
2022-10-31T23:14:06.614Z,11.10
2022-10-31T23:16:45.179Z,10.73
2022-10-31T23:19:23.717Z,10.63
2022-10-31T23:22:03.415Z,9.40
2022-10-31T23:24:39.743Z,10.07
2022-10-31T23:27:17.317Z,10.85
2022-10-31T23:29:49.436Z,9.57
2022-10-31T23:32:32.052Z,10.43
2022-10-31T23:35:06.609Z,10.38
2022-10-31T23:37:40.156Z,10.23
2022-10-31T23:40:11.665Z,10.88
2022-10-31T23:42:42.583Z,10.48
2022-10-31T23:45:13.750Z,10.07
2022-10-31T23:47:46.100Z,9.63
2022-10-31T23:50:17.060Z,10.05
2022-10-31T23:52:47.916Z,10.60
2022-10-31T23:55:24.262Z,10.05
2022-10-31T23:58:14.981Z,10.75
